createdAt,value
2023-11-25T00:01:42.486Z,4.63
2023-11-25T00:04:09.674Z,2.50
2023-11-25T00:06:38.035Z,4.37
2023-11-25T00:09:05.196Z,4.80
2023-11-25T00:11:32.236Z,5.43
2023-11-25T00:14:00.339Z,7.27
2023-11-25T00:16:27.493Z,2.87
2023-11-25T00:18:55.140Z,4.27
2023-11-25T00:21:22.202Z,4.50
2023-11-25T00:23:49.181Z,5.17
2023-11-25T00:26:16.272Z,3.93
2023-11-25T00:28:53.043Z,3.00
2023-11-25T00:31:20.336Z,3.43
2023-11-25T00:33:47.339Z,4.20
2023-11-25T00:36:14.334Z,6.30
2023-11-25T00:38:41.440Z,3.60
2023-11-25T00:41:08.414Z,4.53
2023-11-25T00:43:35.521Z,5.40
2023-11-25T00:46:04.429Z,2.60
2023-11-25T00:48:32.673Z,6.83
2023-11-25T00:50:59.701Z,6.03
2023-11-25T00:53:26.746Z,3.67
2023-11-25T00:55:53.746Z,6.20
2023-11-25T00:58:20.751Z,6.30
2023-11-25T01:00:48.076Z,3.80
2023-11-25T01:03:15.099Z,3.57
2023-11-25T01:05:42.217Z,5.07
2023-11-25T01:08:09.424Z,3.17
2023-11-25T01:10:36.657Z,3.83
2023-11-25T01:13:04.382Z,5.73
2023-11-25T01:15:31.528Z,4.40
2023-11-25T01:17:58.589Z,3.43
2023-11-25T01:20:25.593Z,3.27
2023-11-25T01:22:52.659Z,3.53
2023-11-25T01:25:19.798Z,6.10
2023-11-25T01:27:47.036Z,6.07
2023-11-25T01:30:14.694Z,6.20
2023-11-25T01:32:42.287Z,3.17
2023-11-25T01:35:09.514Z,4.37
2023-11-25T01:37:36.710Z,5.10
2023-11-25T01:40:06.909Z,7.20
2023-11-25T01:42:34.055Z,4.13
2023-11-25T01:45:01.101Z,3.87
2023-11-25T01:47:28.361Z,3.40
2023-11-25T01:49:55.515Z,4.37
2023-11-25T01:52:23.720Z,5.33
2023-11-25T01:54:52.325Z,4.87
2023-11-25T01:57:21.888Z,4.63
2023-11-25T01:59:50.004Z,4.90
2023-11-25T02:02:22.044Z,3.80
2023-11-25T02:04:49.274Z,3.63
2023-11-25T02:07:17.765Z,3.10
2023-11-25T02:09:45.048Z,5.53
2023-11-25T02:12:12.502Z,2.67
2023-11-25T02:14:42.266Z,3.27
2023-11-25T02:17:09.456Z,6.67
2023-11-25T02:19:36.592Z,1.77
2023-11-25T02:22:07.910Z,3.70
2023-11-25T02:24:37.985Z,4.07
2023-11-25T02:27:06.621Z,4.63
2023-11-25T02:29:34.261Z,2.13
2023-11-25T02:32:01.490Z,4.83
2023-11-25T02:34:28.973Z,2.20
2023-11-25T02:36:59.882Z,5.17
2023-11-25T02:39:29.034Z,4.03
2023-11-25T02:41:56.004Z,3.20
2023-11-25T02:44:23.193Z,4.13
2023-11-25T02:46:51.134Z,3.17
2023-11-25T02:49:18.399Z,2.63
2023-11-25T02:51:49.700Z,2.27
2023-11-25T02:54:17.660Z,2.07
2023-11-25T02:56:44.876Z,2.23
2023-11-25T02:59:13.936Z,4.43
2023-11-25T03:01:50.548Z,3.20
2023-11-25T03:04:21.214Z,1.13
2023-11-25T03:06:52.713Z,1.60
2023-11-25T03:09:20.438Z,2.90
2023-11-25T03:11:48.173Z,1.87
2023-11-25T03:14:17.567Z,2.27
2023-11-25T03:16:45.095Z,3.10
2023-11-25T03:19:12.632Z,3.10
2023-11-25T03:21:40.158Z,2.93
2023-11-25T03:24:09.470Z,3.47
2023-11-25T03:26:36.906Z,5.07
2023-11-25T03:29:04.039Z,4.30
2023-11-25T03:31:31.067Z,5.03
2023-11-25T03:33:58.286Z,5.00
2023-11-25T03:36:25.348Z,3.90
2023-11-25T03:38:52.552Z,3.90
2023-11-25T03:41:21.107Z,3.50
2023-11-25T03:43:48.178Z,3.50
2023-11-25T03:46:15.421Z,4.00
2023-11-25T03:54:18.915Z,2.40
2023-11-25T03:56:46.241Z,4.00
2023-11-25T03:59:13.243Z,1.67
2023-11-25T04:01:43.235Z,2.83
2023-11-25T04:04:12.080Z,3.23
2023-11-25T04:06:39.261Z,3.47
2023-11-25T04:09:06.436Z,4.57
2023-11-25T04:11:33.418Z,3.83
2023-11-25T04:14:00.834Z,2.73
2023-11-25T04:16:27.943Z,3.60
2023-11-25T04:18:55.700Z,3.93
2023-11-25T04:21:23.069Z,4.60
2023-11-25T04:23:54.264Z,2.13
2023-11-25T04:26:21.392Z,3.70
2023-11-25T04:28:49.137Z,3.20
2023-11-25T04:31:16.355Z,4.70
2023-11-25T04:33:43.549Z,2.60
2023-11-25T04:36:19.244Z,3.33
2023-11-25T04:38:47.676Z,5.87
2023-11-25T04:41:14.774Z,3.10
2023-11-25T04:43:41.839Z,4.17
2023-11-25T04:46:12.671Z,2.53
2023-11-25T04:48:40.311Z,3.43
2023-11-25T04:51:07.385Z,4.10
2023-11-25T04:53:34.426Z,3.40
2023-11-25T04:56:01.409Z,2.63
2023-11-25T04:58:28.544Z,2.43
2023-11-25T05:00:55.684Z,1.77
2023-11-25T05:03:23.268Z,2.23
2023-11-25T05:05:50.341Z,3.00
2023-11-25T05:08:18.285Z,5.10
2023-11-25T05:10:45.283Z,6.07
2023-11-25T05:13:14.097Z,2.73
2023-11-25T05:15:43.135Z,3.17
2023-11-25T05:18:10.107Z,3.70
2023-11-25T05:20:37.164Z,4.53
2023-11-25T05:23:07.204Z,1.57
2023-11-25T05:25:34.924Z,2.47
2023-11-25T05:28:02.169Z,2.90
2023-11-25T05:30:29.203Z,4.23
2023-11-25T05:32:56.235Z,5.00
2023-11-25T05:35:23.379Z,5.17
2023-11-25T05:37:50.576Z,2.90
2023-11-25T05:40:17.684Z,4.43
2023-11-25T05:42:49.989Z,2.47
2023-11-25T05:45:19.667Z,3.07
2023-11-25T05:47:47.059Z,3.33
2023-11-25T05:50:21.617Z,4.17
2023-11-25T05:52:49.420Z,1.87
2023-11-25T05:55:16.747Z,4.40
2023-11-25T05:57:45.831Z,4.30
2023-11-25T06:00:13.621Z,6.20
2023-11-25T06:02:40.953Z,3.47
2023-11-25T06:05:08.780Z,10.27
2023-11-25T06:07:36.209Z,3.63
2023-11-25T06:10:04.889Z,3.60
2023-11-25T06:12:33.244Z,3.03
2023-11-25T06:15:00.724Z,3.93
2023-11-25T06:17:28.092Z,3.60
2023-11-25T06:19:55.502Z,3.53
2023-11-25T06:22:22.992Z,2.33
2023-11-25T06:24:49.982Z,2.63
2023-11-25T06:27:21.089Z,2.60
2023-11-25T06:29:48.712Z,4.73
2023-11-25T06:32:15.692Z,3.40
2023-11-25T06:34:42.817Z,6.83
2023-11-25T06:37:09.889Z,2.47
2023-11-25T06:39:36.971Z,6.13
2023-11-25T06:42:07.450Z,2.90
2023-11-25T06:44:34.556Z,2.43
2023-11-25T06:47:01.912Z,2.90
2023-11-25T06:49:29.083Z,6.43
2023-11-25T06:51:56.150Z,5.20
2023-11-25T06:54:24.864Z,2.67
2023-11-25T06:56:52.387Z,5.40
2023-11-25T06:59:19.626Z,4.37
2023-11-25T07:01:47.391Z,6.00
2023-11-25T07:04:15.475Z,5.80
2023-11-25T07:06:42.494Z,7.07
2023-11-25T07:09:10.787Z,7.80
2023-11-25T07:11:38.565Z,8.37
2023-11-25T07:14:06.567Z,5.40
2023-11-25T07:16:34.730Z,6.07
2023-11-25T07:19:02.286Z,7.83
2023-11-25T07:21:29.267Z,4.87
2023-11-25T07:23:56.839Z,9.87
2023-11-25T07:26:24.065Z,5.03
2023-11-25T07:28:51.085Z,5.70
2023-11-25T07:31:18.229Z,9.47
2023-11-25T07:33:47.047Z,10.80
2023-11-25T07:36:15.088Z,16.17
2023-11-25T07:38:42.096Z,8.77
2023-11-25T07:41:16.759Z,7.80
2023-11-25T07:43:43.889Z,10.77
2023-11-25T07:46:12.676Z,9.40
2023-11-25T07:48:39.864Z,8.73
2023-11-25T07:51:06.877Z,9.93
2023-11-25T07:53:33.909Z,7.60
2023-11-25T07:56:02.487Z,6.73
2023-11-25T07:58:30.654Z,9.17
2023-11-25T08:00:59.602Z,5.63
2023-11-25T08:03:26.637Z,10.87
2023-11-25T08:05:54.420Z,8.27
2023-11-25T08:08:22.086Z,9.83
2023-11-25T08:10:49.383Z,9.10
2023-11-25T08:13:19.650Z,7.00
2023-11-25T08:15:46.891Z,7.23
2023-11-25T08:18:16.747Z,12.37
2023-11-25T08:20:43.805Z,9.70
2023-11-25T08:23:11.308Z,8.77
2023-11-25T08:25:38.488Z,10.87
2023-11-25T08:28:05.708Z,9.83
2023-11-25T08:30:32.698Z,8.50
2023-11-25T08:33:01.253Z,10.57
2023-11-25T08:35:28.359Z,9.93
2023-11-25T08:37:55.545Z,10.70
2023-11-25T08:40:23.334Z,8.97
2023-11-25T08:42:50.961Z,8.40
2023-11-25T08:45:18.250Z,8.87
2023-11-25T08:47:45.917Z,9.83
2023-11-25T08:50:17.412Z,13.60
2023-11-25T08:52:46.514Z,13.03
2023-11-25T08:55:18.705Z,11.33
2023-11-25T08:57:46.318Z,9.60
2023-11-25T09:00:19.970Z,9.40
2023-11-25T09:02:49.772Z,9.60
2023-11-25T09:05:17.116Z,11.77
2023-11-25T09:07:45.387Z,8.27
2023-11-25T09:10:12.839Z,9.80
2023-11-25T09:12:41.382Z,8.87
2023-11-25T09:15:10.180Z,12.37
2023-11-25T09:17:40.079Z,9.83
2023-11-25T09:20:11.376Z,9.63
2023-11-25T09:22:41.523Z,11.53
2023-11-25T09:25:13.537Z,10.33
2023-11-25T09:27:41.650Z,11.63
2023-11-25T09:30:13.267Z,12.53
2023-11-25T09:32:45.753Z,9.93
2023-11-25T09:35:14.325Z,14.70
2023-11-25T09:37:43.223Z,9.60
2023-11-25T09:40:16.525Z,9.70
2023-11-25T09:42:45.365Z,10.30
2023-11-25T09:45:14.245Z,10.83
2023-11-25T09:47:45.428Z,11.27
2023-11-25T09:50:17.727Z,11.70
2023-11-25T09:52:50.338Z,15.10
2023-11-25T09:55:20.072Z,11.17
2023-11-25T09:57:51.462Z,8.90
2023-11-25T10:00:19.190Z,13.97
2023-11-25T10:02:53.128Z,11.90
2023-11-25T10:05:20.210Z,9.23
2023-11-25T10:07:47.988Z,11.10
2023-11-25T10:10:17.926Z,10.87
2023-11-25T10:12:44.940Z,12.30
2023-11-25T10:15:12.009Z,9.37
2023-11-25T10:17:39.473Z,8.63
2023-11-25T10:20:24.074Z,11.43
2023-11-25T10:22:55.166Z,13.90
2023-11-25T10:25:23.011Z,12.70
2023-11-25T10:27:52.736Z,12.63
2023-11-25T10:30:22.176Z,14.57
2023-11-25T10:32:51.307Z,13.53
2023-11-25T10:35:20.213Z,15.20
2023-11-25T10:37:47.663Z,11.30
2023-11-25T10:40:18.365Z,11.07
2023-11-25T10:42:49.610Z,13.80
2023-11-25T10:45:17.594Z,15.50
2023-11-25T10:47:45.270Z,11.50
2023-11-25T10:50:14.841Z,14.93
2023-11-25T10:52:44.920Z,9.43
2023-11-25T10:55:12.309Z,14.47
2023-11-25T10:57:41.868Z,12.60
2023-11-25T11:00:13.022Z,13.77
2023-11-25T11:03:06.979Z,11.53
2023-11-25T11:05:50.588Z,15.83
2023-11-25T11:08:22.198Z,11.13
2023-11-25T11:10:55.858Z,12.43
2023-11-25T11:13:30.544Z,13.30
2023-11-25T11:16:01.660Z,12.13
2023-11-25T11:18:37.579Z,12.93
2023-11-25T11:21:07.899Z,9.67
2023-11-25T11:23:38.819Z,8.37
2023-11-25T11:26:29.467Z,11.43
2023-11-25T11:29:15.029Z,6.43
2023-11-25T11:31:48.479Z,10.70
2023-11-25T11:34:15.801Z,8.43
2023-11-25T11:36:42.804Z,8.03
2023-11-25T11:39:12.964Z,7.30
2023-11-25T11:41:40.513Z,8.60
2023-11-25T11:44:09.050Z,13.57
2023-11-25T11:46:40.111Z,9.07
2023-11-25T11:49:09.416Z,8.63
2023-11-25T11:51:36.703Z,9.93
2023-11-25T11:54:21.983Z,9.70
2023-11-25T11:57:02.373Z,10.30
2023-11-25T12:00:14.595Z,10.83
2023-11-25T12:02:44.558Z,8.87
2023-11-25T12:05:12.325Z,10.10
2023-11-25T12:07:40.160Z,9.90
2023-11-25T12:10:07.872Z,6.73
2023-11-25T12:12:41.961Z,8.70
2023-11-25T12:15:10.160Z,10.80
2023-11-25T12:17:37.704Z,12.57
2023-11-25T12:20:09.831Z,15.37
2023-11-25T12:22:37.034Z,13.47
2023-11-25T12:25:05.570Z,11.53
2023-11-25T12:27:34.200Z,11.57
2023-11-25T12:30:01.649Z,7.13
2023-11-25T12:32:28.717Z,7.33
2023-11-25T12:34:55.821Z,9.27
2023-11-25T12:37:23.094Z,9.93
2023-11-25T12:39:52.012Z,9.97
2023-11-25T12:42:25.217Z,12.17
2023-11-25T12:44:52.358Z,12.50
2023-11-25T12:47:20.247Z,8.90
2023-11-25T12:49:48.852Z,11.67
2023-11-25T12:52:24.581Z,9.30
2023-11-25T12:54:54.170Z,10.47
2023-11-25T12:57:27.301Z,10.80
2023-11-25T12:59:56.774Z,11.97
2023-11-25T13:02:23.982Z,8.23
2023-11-25T13:04:51.633Z,8.77
2023-11-25T13:07:31.953Z,8.93
2023-11-25T13:09:59.600Z,7.83
2023-11-25T13:12:29.696Z,7.07
2023-11-25T13:14:57.038Z,5.97
2023-11-25T13:17:25.210Z,8.00
2023-11-25T13:19:52.384Z,6.10
2023-11-25T13:22:20.799Z,6.97
2023-11-25T13:24:47.977Z,4.87
2023-11-25T13:27:15.170Z,5.63
2023-11-25T13:29:45.910Z,6.57
2023-11-25T13:32:13.008Z,4.83
2023-11-25T13:34:41.455Z,3.53
2023-11-25T13:37:09.290Z,4.67
2023-11-25T13:39:37.192Z,9.83
2023-11-25T13:42:06.196Z,3.30
2023-11-25T13:44:33.417Z,4.37
2023-11-25T13:47:00.593Z,4.23
2023-11-25T13:49:30.735Z,3.90
2023-11-25T13:51:58.600Z,4.47
2023-11-25T13:54:30.139Z,5.37
2023-11-25T13:56:57.782Z,3.53
2023-11-25T13:59:25.508Z,6.10
2023-11-25T14:01:52.767Z,4.40
2023-11-25T14:04:20.846Z,3.77
2023-11-25T14:06:51.764Z,3.37
2023-11-25T14:09:19.571Z,2.67
2023-11-25T14:11:47.020Z,2.30
2023-11-25T14:14:14.266Z,3.67
2023-11-25T14:16:46.430Z,5.07
2023-11-25T14:19:13.778Z,2.30
2023-11-25T14:21:40.719Z,3.00
2023-11-25T14:24:08.098Z,2.53
2023-11-25T14:26:38.418Z,2.73
2023-11-25T14:29:05.808Z,3.93
2023-11-25T14:31:35.677Z,4.37
2023-11-25T14:34:03.092Z,3.20
2023-11-25T14:36:31.655Z,2.87
2023-11-25T14:38:58.822Z,2.53
2023-11-25T14:41:26.451Z,3.67
2023-11-25T14:43:54.855Z,4.03
2023-11-25T14:46:23.412Z,4.40
2023-11-25T14:48:50.575Z,5.97
2023-11-25T14:51:17.554Z,4.83
2023-11-25T14:53:44.580Z,7.50
2023-11-25T14:56:12.083Z,2.77
2023-11-25T14:58:39.320Z,3.83
2023-11-25T15:01:07.226Z,2.70
2023-11-25T15:03:34.382Z,3.10
2023-11-25T15:06:01.423Z,5.30
2023-11-25T15:08:28.386Z,3.30
2023-11-25T15:10:57.466Z,5.07
2023-11-25T15:13:24.549Z,5.10
2023-11-25T15:15:52.614Z,3.20
2023-11-25T15:18:19.871Z,3.13
2023-11-25T15:20:47.026Z,4.03
2023-11-25T15:23:14.295Z,3.67
2023-11-25T15:25:41.633Z,1.97
2023-11-25T15:28:08.921Z,2.47
2023-11-25T15:30:35.911Z,3.20
2023-11-25T15:33:03.217Z,4.00
2023-11-25T15:35:30.481Z,3.10
2023-11-25T15:37:57.528Z,3.53
2023-11-25T15:40:24.670Z,6.73
2023-11-25T15:42:51.765Z,3.50
2023-11-25T15:45:19.122Z,3.40
2023-11-25T15:47:46.915Z,5.83
2023-11-25T15:50:16.321Z,3.87
2023-11-25T15:52:43.773Z,4.03
2023-11-25T15:55:12.874Z,4.87
2023-11-25T15:57:40.194Z,7.33
2023-11-25T16:00:15.098Z,7.03
2023-11-25T16:02:43.242Z,6.73
2023-11-25T16:05:15.490Z,3.07
2023-11-25T16:07:42.863Z,3.50
2023-11-25T16:10:11.413Z,3.00
2023-11-25T16:12:39.631Z,2.40
2023-11-25T16:15:10.344Z,3.80
2023-11-25T16:17:38.582Z,1.87
2023-11-25T16:20:07.180Z,2.53
2023-11-25T16:22:34.385Z,3.63
2023-11-25T16:25:01.405Z,5.27
2023-11-25T16:27:28.658Z,4.73
2023-11-25T16:29:56.549Z,2.90
2023-11-25T16:32:23.813Z,4.50
2023-11-25T16:34:50.992Z,4.77
2023-11-25T16:37:18.102Z,4.80
2023-11-25T16:39:45.104Z,2.90
2023-11-25T16:42:12.193Z,3.73
2023-11-25T16:44:39.585Z,5.57
2023-11-25T16:47:06.737Z,4.13
2023-11-25T16:49:41.058Z,5.00
2023-11-25T16:52:10.424Z,2.73
2023-11-25T16:54:37.734Z,3.00
2023-11-25T16:57:04.711Z,3.47
2023-11-25T16:59:31.704Z,3.53
2023-11-25T17:01:58.880Z,5.13
2023-11-25T17:04:26.024Z,5.47
2023-11-25T17:06:53.060Z,5.27
2023-11-25T17:09:20.928Z,3.90
2023-11-25T17:11:47.904Z,5.80
2023-11-25T17:14:15.031Z,4.87
2023-11-25T17:16:42.201Z,3.97
2023-11-25T17:19:11.534Z,5.57
2023-11-25T17:21:38.511Z,3.50
2023-11-25T17:24:06.642Z,8.13
2023-11-25T17:26:33.708Z,4.27
2023-11-25T17:29:00.944Z,6.10
2023-11-25T17:31:28.217Z,5.70
2023-11-25T17:33:55.235Z,3.03
2023-11-25T17:36:22.178Z,5.80
2023-11-25T17:38:49.345Z,2.50
2023-11-25T17:41:19.383Z,7.40
2023-11-25T17:43:46.550Z,2.73
2023-11-25T17:46:14.566Z,4.43
2023-11-25T17:48:42.497Z,3.23
2023-11-25T17:51:09.682Z,3.33
2023-11-25T17:53:36.875Z,5.73
2023-11-25T17:56:04.405Z,4.10
2023-11-25T17:58:31.411Z,3.20
2023-11-25T18:00:58.694Z,3.67
2023-11-25T18:03:25.781Z,5.17
2023-11-25T18:05:52.781Z,4.73
2023-11-25T18:08:19.857Z,2.50
2023-11-25T18:10:47.035Z,6.63
2023-11-25T18:13:14.161Z,5.37
2023-11-25T18:15:41.291Z,4.00
2023-11-25T18:18:08.401Z,5.50
2023-11-25T18:20:35.560Z,8.67
2023-11-25T18:23:02.598Z,4.07
2023-11-25T18:25:30.431Z,5.37
2023-11-25T18:27:57.589Z,3.60
2023-11-25T18:30:25.724Z,6.57
2023-11-25T18:32:53.257Z,3.53
2023-11-25T18:35:20.269Z,3.60
2023-11-25T18:37:48.016Z,6.03
2023-11-25T18:40:15.908Z,3.97
2023-11-25T18:42:42.987Z,4.33
2023-11-25T18:45:10.911Z,5.53
2023-11-25T18:47:38.220Z,3.60
2023-11-25T18:50:06.483Z,7.87
2023-11-25T18:52:33.544Z,4.00
2023-11-25T18:55:00.669Z,6.17
2023-11-25T18:57:28.045Z,5.23
2023-11-25T18:59:55.120Z,6.00
2023-11-25T19:02:22.256Z,5.53
2023-11-25T19:04:49.435Z,5.03
2023-11-25T19:07:16.506Z,5.30
2023-11-25T19:09:43.483Z,4.30
2023-11-25T19:12:12.502Z,7.03
2023-11-25T19:14:39.531Z,5.10
2023-11-25T19:17:09.046Z,3.60
2023-11-25T19:19:36.640Z,4.60
2023-11-25T19:22:04.715Z,7.20
2023-11-25T19:24:31.844Z,4.57
2023-11-25T19:26:58.902Z,10.63
2023-11-25T19:29:26.224Z,4.47
2023-11-25T19:31:53.406Z,4.23
2023-11-25T19:34:20.524Z,4.50
2023-11-25T19:36:48.430Z,3.00
2023-11-25T19:39:17.041Z,3.10
2023-11-25T19:41:44.142Z,3.87
2023-11-25T19:44:11.285Z,4.77
2023-11-25T19:46:38.353Z,3.27
2023-11-25T19:49:06.025Z,3.43
2023-11-25T19:51:33.115Z,3.27
2023-11-25T19:54:01.816Z,4.60
2023-11-25T19:56:32.110Z,3.00
2023-11-25T19:58:59.191Z,3.53
2023-11-25T20:01:26.221Z,4.17
2023-11-25T20:03:53.265Z,4.30
2023-11-25T20:06:20.331Z,3.97
2023-11-25T20:08:47.417Z,3.00
2023-11-25T20:11:14.466Z,2.93
2023-11-25T20:13:41.482Z,4.93
2023-11-25T20:16:08.818Z,5.43
2023-11-25T20:18:35.915Z,2.47
2023-11-25T20:21:02.930Z,3.63
2023-11-25T20:23:29.968Z,4.60
2023-11-25T20:25:56.955Z,3.93
2023-11-25T20:28:24.132Z,4.63
2023-11-25T20:30:51.110Z,3.37
2023-11-25T20:33:18.125Z,5.33
2023-11-25T20:35:45.163Z,3.73
2023-11-25T20:38:12.228Z,4.37
2023-11-25T20:40:39.387Z,3.53
2023-11-25T20:43:06.502Z,5.37
2023-11-25T20:45:35.897Z,5.33
2023-11-25T20:48:05.392Z,5.05
2023-11-25T20:50:34.689Z,4.60
2023-11-25T20:53:03.456Z,2.20
2023-11-25T20:55:30.587Z,2.27
2023-11-25T20:57:57.724Z,5.60
2023-11-25T21:00:24.918Z,4.17
2023-11-25T21:02:52.031Z,4.90
2023-11-25T21:05:20.808Z,3.90
2023-11-25T21:07:47.830Z,3.67
2023-11-25T21:10:15.956Z,3.07
2023-11-25T21:12:43.087Z,4.60
2023-11-25T21:15:10.682Z,3.90
2023-11-25T21:17:37.826Z,4.27
2023-11-25T21:20:06.192Z,5.80
2023-11-25T21:22:34.241Z,5.07
2023-11-25T21:25:02.911Z,3.30
2023-11-25T21:27:31.970Z,2.03
2023-11-25T21:29:58.964Z,4.30
2023-11-25T21:32:30.070Z,3.27
2023-11-25T21:34:57.278Z,7.40
2023-11-25T21:37:24.882Z,2.90
2023-11-25T21:39:52.350Z,2.83
2023-11-25T21:42:19.555Z,3.87
2023-11-25T21:44:47.991Z,4.00
2023-11-25T21:47:16.197Z,3.27
2023-11-25T21:49:43.533Z,3.17
2023-11-25T21:52:11.312Z,4.27
2023-11-25T21:54:39.867Z,5.53
2023-11-25T21:57:08.480Z,4.07
2023-11-25T21:59:35.536Z,1.53
2023-11-25T22:02:02.917Z,4.80
2023-11-25T22:04:30.152Z,5.70
2023-11-25T22:06:57.113Z,9.30
2023-11-25T22:09:24.226Z,1.10
2023-11-25T22:11:51.297Z,3.23
2023-11-25T22:14:18.411Z,2.30
2023-11-25T22:16:46.009Z,1.77
2023-11-25T22:19:13.301Z,1.50
2023-11-25T22:21:41.124Z,1.67
2023-11-25T22:24:12.522Z,1.13
2023-11-25T22:26:48.657Z,3.70
2023-11-25T22:29:15.899Z,1.70
2023-11-25T22:31:43.596Z,2.73
2023-11-25T22:34:12.406Z,2.20
2023-11-25T22:36:39.680Z,2.23
2023-11-25T22:39:08.140Z,1.27
2023-11-25T22:41:36.257Z,1.80
2023-11-25T22:44:03.532Z,3.47
2023-11-25T22:46:30.692Z,1.37
2023-11-25T22:48:57.750Z,2.90
2023-11-25T22:51:25.488Z,1.57
2023-11-25T22:53:54.709Z,2.30
2023-11-25T22:56:21.716Z,1.40
2023-11-25T22:58:48.708Z,3.63
2023-11-25T23:01:26.250Z,1.50
2023-11-25T23:03:56.181Z,1.77
2023-11-25T23:06:24.671Z,2.00
2023-11-25T23:08:53.814Z,2.93
2023-11-25T23:11:22.125Z,2.17
2023-11-25T23:13:50.647Z,2.33
2023-11-25T23:16:19.633Z,2.00
2023-11-25T23:18:46.807Z,2.77
2023-11-25T23:21:13.754Z,2.73
2023-11-25T23:23:46.432Z,2.53
2023-11-25T23:26:16.234Z,4.10
2023-11-25T23:28:43.749Z,2.27
2023-11-25T23:31:10.817Z,1.97
2023-11-25T23:33:38.803Z,1.80
2023-11-25T23:36:06.421Z,1.97
2023-11-25T23:38:34.224Z,2.87
2023-11-25T23:41:01.840Z,2.97
2023-11-25T23:43:29.895Z,3.60
2023-11-25T23:45:57.710Z,2.23
2023-11-25T23:48:24.949Z,3.77
2023-11-25T23:50:52.445Z,2.13
2023-11-25T23:53:22.268Z,2.53
2023-11-25T23:55:50.379Z,3.60
2023-11-25T23:58:17.545Z,3.30
